createdAt,value
2023-01-28T00:01:17.641Z,99242.50
2023-01-28T00:03:49.156Z,99245.84
2023-01-28T00:06:17.872Z,99255.50
2023-01-28T00:08:46.210Z,99254.78
2023-01-28T00:11:14.781Z,99262.44
2023-01-28T00:13:42.932Z,99256.78
2023-01-28T00:16:11.657Z,99255.84
2023-01-28T00:18:39.623Z,99256.13
2023-01-28T00:21:12.964Z,99260.06
2023-01-28T00:23:43.221Z,99258.50
2023-01-28T00:26:13.014Z,99260.75
2023-01-28T00:28:42.287Z,99269.37
2023-01-28T00:31:11.781Z,99266.41
2023-01-28T00:33:39.714Z,99266.81
2023-01-28T00:36:08.373Z,99260.81
2023-01-28T00:38:36.664Z,99267.69
2023-01-28T00:41:12.382Z,99271.72
2023-01-28T00:43:41.542Z,99272.19
2023-01-28T00:46:11.487Z,99272.38
2023-01-28T00:48:40.883Z,99273.09
2023-01-28T00:51:09.901Z,99274.34
2023-01-28T00:53:38.717Z,99278.19
2023-01-28T00:56:08.842Z,99280.25
2023-01-28T00:58:37.106Z,99279.47
2023-01-28T01:01:12.292Z,99282.19
2023-01-28T01:03:40.960Z,99286.81
2023-01-28T01:06:09.622Z,99281.38
2023-01-28T01:08:40.331Z,99281.66
2023-01-28T01:11:12.249Z,99285.06
2023-01-28T01:13:40.222Z,99287.69
2023-01-28T01:16:14.202Z,99277.84
2023-01-28T01:18:42.463Z,99281.94
2023-01-28T01:21:16.421Z,99284.41
2023-01-28T01:23:46.695Z,99281.50
2023-01-28T01:26:15.355Z,99285.13
2023-01-28T01:28:43.767Z,99282.53
2023-01-28T01:31:17.758Z,99280.81
2023-01-28T01:33:47.652Z,99277.66
2023-01-28T01:36:17.443Z,99280.44
2023-01-28T01:38:46.103Z,99284.13
2023-01-28T01:41:27.606Z,99286.84
2023-01-28T01:44:01.600Z,99287.06
2023-01-28T01:46:34.389Z,99288.72
2023-01-28T01:49:18.323Z,99291.16
2023-01-28T01:51:47.764Z,99289.16
2023-01-28T01:54:17.202Z,99291.63
2023-01-28T01:56:47.670Z,99296.47
2023-01-28T01:59:20.182Z,99288.94
2023-01-28T02:01:48.375Z,99297.88
2023-01-28T02:04:21.169Z,99299.94
2023-01-28T02:06:49.554Z,99301.97
2023-01-28T02:09:23.573Z,99294.06
2023-01-28T02:12:12.604Z,99299.13
2023-01-28T02:14:50.471Z,99295.94
2023-01-28T02:17:18.752Z,99294.66
2023-01-28T02:20:13.461Z,99297.50
2023-01-28T02:23:00.487Z,99289.19
2023-01-28T02:25:41.041Z,99294.00
2023-01-28T02:28:15.410Z,99296.09
2023-01-28T02:30:51.220Z,99290.66
2023-01-28T02:33:30.521Z,99284.72
2023-01-28T02:36:04.082Z,99296.81
2023-01-28T02:38:56.763Z,99281.88
2023-01-28T02:41:31.493Z,99284.94
2023-01-28T02:44:03.042Z,99296.19
2023-01-28T02:46:49.813Z,99292.53
2023-01-28T02:49:17.871Z,99286.44
2023-01-28T02:52:03.692Z,99286.13
2023-01-28T02:54:50.562Z,99289.69
2023-01-28T02:57:18.437Z,99288.09
2023-01-28T03:00:02.944Z,99278.13
2023-01-28T03:03:05.483Z,99287.75
2023-01-28T03:05:39.157Z,99285.31
2023-01-28T03:08:27.812Z,99280.97
2023-01-28T03:11:16.154Z,99284.78
2023-01-28T03:14:03.701Z,99282.63
2023-01-28T03:16:51.789Z,99285.37
2023-01-28T03:19:38.781Z,99292.53
2023-01-28T03:22:25.667Z,99286.38
2023-01-28T03:25:12.902Z,99294.47
2023-01-28T03:28:11.294Z,99293.94
2023-01-28T03:31:07.702Z,99289.97
2023-01-28T03:33:55.081Z,99290.78
2023-01-28T03:36:41.746Z,99291.16
2023-01-28T03:39:11.077Z,99292.00
2023-01-28T03:41:40.164Z,99289.78
2023-01-28T03:44:26.642Z,99294.28
2023-01-28T03:46:55.004Z,99303.09
2023-01-28T03:49:22.942Z,99299.13
2023-01-28T03:51:51.143Z,99295.50
2023-01-28T03:54:19.631Z,99297.63
2023-01-28T03:56:48.812Z,99293.44
2023-01-28T03:59:16.758Z,99304.22
2023-01-28T04:01:45.085Z,99304.06
2023-01-28T04:04:23.217Z,99304.94
2023-01-28T04:06:53.097Z,99300.41
2023-01-28T04:09:24.791Z,99313.38
2023-01-28T04:11:53.792Z,99302.06
2023-01-28T04:14:22.432Z,99303.09
2023-01-28T04:16:50.812Z,99310.25
2023-01-28T04:19:19.078Z,99294.81
2023-01-28T04:21:49.232Z,99306.13
2023-01-28T04:24:17.456Z,99310.19
2023-01-28T04:26:45.601Z,99311.19
2023-01-28T04:29:14.218Z,99308.00
2023-01-28T04:31:42.144Z,99309.00
2023-01-28T04:34:10.521Z,99311.44
2023-01-28T04:36:39.101Z,99313.31
2023-01-28T04:39:07.130Z,99314.75
2023-01-28T04:41:36.048Z,99318.94
2023-01-28T04:44:04.812Z,99309.84
2023-01-28T04:46:33.233Z,99314.94
2023-01-28T04:49:02.431Z,99318.50
2023-01-28T04:51:30.952Z,99313.69
2023-01-28T04:53:59.078Z,99311.91
2023-01-28T04:56:27.281Z,99317.88
2023-01-28T04:58:56.266Z,99322.56
2023-01-28T05:01:25.329Z,99314.44
2023-01-28T05:03:54.344Z,99316.50
2023-01-28T05:06:22.832Z,99323.91
2023-01-28T05:08:51.415Z,99325.69
2023-01-28T05:11:19.971Z,99331.25
2023-01-28T05:13:48.672Z,99332.94
2023-01-28T05:16:16.564Z,99336.38
2023-01-28T05:18:44.921Z,99333.31
2023-01-28T05:21:14.051Z,99337.97
2023-01-28T05:23:42.112Z,99343.94
2023-01-28T05:26:10.660Z,99337.25
2023-01-28T05:28:39.487Z,99351.00
2023-01-28T05:31:10.811Z,99346.44
2023-01-28T05:33:39.585Z,99342.50
2023-01-28T05:36:09.152Z,99348.09
2023-01-28T05:38:37.192Z,99348.06
2023-01-28T05:41:05.544Z,99343.19
2023-01-28T05:43:33.632Z,99350.28
2023-01-28T05:46:02.328Z,99353.31
2023-01-28T05:48:30.823Z,99351.56
2023-01-28T05:50:59.324Z,99357.38
2023-01-28T05:53:29.475Z,99351.28
2023-01-28T05:55:58.247Z,99356.62
2023-01-28T05:58:29.362Z,99365.72
2023-01-28T06:00:58.503Z,99370.72
2023-01-28T06:03:28.497Z,99362.03
2023-01-28T06:05:56.953Z,99366.81
2023-01-28T06:08:25.037Z,99373.84
2023-01-28T06:10:53.793Z,99375.81
2023-01-28T06:13:22.522Z,99368.16
2023-01-28T06:15:53.171Z,99369.37
2023-01-28T06:18:21.416Z,99371.31
2023-01-28T06:20:50.618Z,99378.31
2023-01-28T06:23:19.130Z,99373.84
2023-01-28T06:25:47.252Z,99377.41
2023-01-28T06:28:15.390Z,99377.53
2023-01-28T06:30:44.957Z,99387.75
2023-01-28T06:33:12.890Z,99387.84
2023-01-28T06:35:40.881Z,99391.63
2023-01-28T06:38:09.181Z,99394.69
2023-01-28T06:40:37.347Z,99392.47
2023-01-28T06:43:06.455Z,99397.88
2023-01-28T06:45:34.845Z,99400.06
2023-01-28T06:48:04.133Z,99408.63
2023-01-28T06:50:32.273Z,99408.78
2023-01-28T06:53:00.619Z,99413.38
2023-01-28T06:55:28.679Z,99416.13
2023-01-28T06:57:56.727Z,99423.03
2023-01-28T07:00:25.510Z,99429.19
2023-01-28T07:02:57.445Z,99426.34
2023-01-28T07:05:26.712Z,99423.34
2023-01-28T07:07:54.687Z,99430.97
2023-01-28T07:10:22.832Z,99433.44
2023-01-28T07:12:51.232Z,99433.59
2023-01-28T07:15:19.252Z,99428.87
2023-01-28T07:17:47.176Z,99442.41
2023-01-28T07:20:16.673Z,99445.25
2023-01-28T07:22:46.000Z,99440.09
2023-01-28T07:25:14.848Z,99440.62
2023-01-28T07:27:48.560Z,99447.47
2023-01-28T07:30:17.955Z,99454.59
2023-01-28T07:32:47.202Z,99457.44
2023-01-28T07:35:16.255Z,99452.25
2023-01-28T07:37:54.228Z,99449.97
2023-01-28T07:40:23.475Z,99452.16
2023-01-28T07:42:52.803Z,99465.94
2023-01-28T07:45:24.581Z,99462.81
2023-01-28T07:48:00.189Z,99459.31
2023-01-28T07:50:29.815Z,99463.16
2023-01-28T07:52:58.297Z,99459.66
2023-01-28T07:55:28.299Z,99453.75
2023-01-28T07:58:00.931Z,99458.94
2023-01-28T08:00:31.046Z,99453.16
2023-01-28T08:03:01.656Z,99464.78
2023-01-28T08:05:39.890Z,99462.09
2023-01-28T08:08:09.692Z,99461.88
2023-01-28T08:10:38.577Z,99458.19
2023-01-28T08:13:07.416Z,99467.50
2023-01-28T08:15:37.053Z,99477.31
2023-01-28T08:18:06.331Z,99472.72
2023-01-28T08:20:35.174Z,99474.81
2023-01-28T08:23:16.885Z,99476.66
2023-01-28T08:25:45.628Z,99476.06
2023-01-28T08:28:15.337Z,99472.00
2023-01-28T08:30:43.484Z,99473.78
2023-01-28T08:33:13.316Z,99479.28
2023-01-28T08:35:42.266Z,99476.00
2023-01-28T08:38:12.462Z,99483.84
2023-01-28T08:40:40.538Z,99485.81
2023-01-28T08:43:09.168Z,99483.19
2023-01-28T08:45:37.208Z,99492.56
2023-01-28T08:48:08.219Z,99491.94
2023-01-28T08:50:38.864Z,99492.75
2023-01-28T08:53:11.706Z,99497.50
2023-01-28T08:55:40.119Z,99493.56
2023-01-28T08:58:14.129Z,99497.16
2023-01-28T09:00:43.158Z,99498.44
2023-01-28T09:03:11.703Z,99495.91
2023-01-28T09:05:40.224Z,99502.25
2023-01-28T09:08:11.136Z,99509.56
2023-01-28T09:10:39.794Z,99513.66
2023-01-28T09:13:09.844Z,99512.84
2023-01-28T09:15:38.869Z,99517.91
2023-01-28T09:18:07.092Z,99515.66
2023-01-28T09:20:35.323Z,99513.81
2023-01-28T09:23:04.712Z,99517.75
2023-01-28T09:25:36.434Z,99519.47
2023-01-28T09:28:06.130Z,99521.69
2023-01-28T09:30:37.303Z,99522.78
2023-01-28T09:33:07.147Z,99526.72
2023-01-28T09:35:36.187Z,99522.53
2023-01-28T09:38:05.053Z,99530.06
2023-01-28T09:40:40.532Z,99528.50
2023-01-28T09:43:41.048Z,99525.78
2023-01-28T09:46:13.540Z,99524.97
2023-01-28T09:48:48.028Z,99517.72
2023-01-28T09:51:37.118Z,99526.00
2023-01-28T09:54:23.604Z,99521.25
2023-01-28T09:56:56.102Z,99521.84
2023-01-28T09:59:24.309Z,99523.00
2023-01-28T10:02:00.603Z,99531.38
2023-01-28T10:04:39.730Z,99519.88
2023-01-28T10:07:26.707Z,99512.34
2023-01-28T10:10:45.590Z,99514.16
2023-01-28T10:13:40.082Z,99507.66
2023-01-28T10:16:26.913Z,99514.50
2023-01-28T10:19:17.137Z,99516.16
2023-01-28T10:22:02.695Z,99513.97
2023-01-28T10:24:41.352Z,99516.06
2023-01-28T10:27:22.554Z,99510.00
2023-01-28T10:29:51.687Z,99513.94
2023-01-28T10:32:31.022Z,99507.09
2023-01-28T10:35:05.011Z,99511.03
2023-01-28T10:37:38.189Z,99512.81
2023-01-28T10:40:13.631Z,99513.78
2023-01-28T10:42:42.451Z,99512.13
2023-01-28T10:45:23.963Z,99512.28
2023-01-28T10:48:08.201Z,99517.66
2023-01-28T10:50:36.472Z,99514.38
2023-01-28T10:53:06.668Z,99521.16
2023-01-28T10:55:57.736Z,99517.72
2023-01-28T10:58:29.104Z,99519.84
2023-01-28T11:01:00.524Z,99515.94
2023-01-28T11:03:32.520Z,99512.78
2023-01-28T11:06:01.203Z,99515.44
2023-01-28T11:08:31.265Z,99518.72
2023-01-28T11:10:59.632Z,99526.13
2023-01-28T11:13:30.216Z,99523.34
2023-01-28T11:16:07.093Z,99517.59
2023-01-28T11:18:36.481Z,99515.78
2023-01-28T11:21:07.579Z,99511.31
2023-01-28T11:23:39.841Z,99507.66
2023-01-28T11:26:15.845Z,99509.94
2023-01-28T11:28:44.722Z,99505.56
2023-01-28T11:31:16.201Z,99499.97
2023-01-28T11:33:53.712Z,99507.25
2023-01-28T11:36:25.493Z,99503.63
2023-01-28T11:39:17.512Z,99506.97
2023-01-28T11:41:47.541Z,99498.78
2023-01-28T11:44:22.847Z,99497.31
2023-01-28T11:46:57.294Z,99503.59
2023-01-28T11:49:44.989Z,99506.19
2023-01-28T11:52:55.529Z,99501.50
2023-01-28T11:55:51.518Z,99502.31
2023-01-28T11:58:24.514Z,99497.91
2023-01-28T12:01:06.200Z,99494.62
2023-01-28T12:03:43.872Z,99497.50
2023-01-28T12:06:24.789Z,99491.16
2023-01-28T12:09:18.848Z,99500.19
2023-01-28T12:12:25.962Z,99487.66
2023-01-28T12:15:38.919Z,99486.16
2023-01-28T12:18:36.044Z,99491.94
2023-01-28T12:21:09.630Z,99485.47
2023-01-28T12:24:10.504Z,99482.84
2023-01-28T12:26:46.232Z,99483.84
2023-01-28T12:29:26.233Z,99483.09
2023-01-28T12:32:29.147Z,99488.50
2023-01-28T12:35:18.884Z,99481.50
2023-01-28T12:38:03.901Z,99484.38
2023-01-28T12:40:45.821Z,99483.78
2023-01-28T12:43:21.515Z,99486.03
2023-01-28T12:45:57.052Z,99490.16
2023-01-28T12:48:47.399Z,99486.53
2023-01-28T12:51:18.664Z,99493.81
2023-01-28T12:54:00.454Z,99489.72
2023-01-28T12:56:40.366Z,99493.09
2023-01-28T12:59:27.028Z,99493.19
2023-01-28T13:02:07.064Z,99500.09
2023-01-28T13:04:43.103Z,99487.81
2023-01-28T13:07:16.242Z,99490.00
2023-01-28T13:10:23.023Z,99505.97
2023-01-28T13:12:51.672Z,99502.25
2023-01-28T13:15:20.553Z,99505.97
2023-01-28T13:18:03.070Z,99501.69
2023-01-28T13:20:54.140Z,99504.87
2023-01-28T13:23:38.328Z,99513.59
2023-01-28T13:26:41.702Z,99508.63
2023-01-28T13:29:15.785Z,99516.22
2023-01-28T13:31:46.648Z,99514.72
2023-01-28T13:34:41.104Z,99520.91
2023-01-28T13:37:32.917Z,99522.81
2023-01-28T13:40:12.822Z,99522.69
2023-01-28T13:42:42.018Z,99528.31
2023-01-28T13:45:16.678Z,99536.63
2023-01-28T13:47:48.108Z,99539.13
2023-01-28T13:50:20.599Z,99533.28
2023-01-28T13:53:30.455Z,99543.31
2023-01-28T13:55:59.863Z,99534.84
2023-01-28T13:59:03.872Z,99539.31
2023-01-28T14:01:46.017Z,99544.84
2023-01-28T14:04:36.094Z,99542.94
2023-01-28T14:07:29.101Z,99545.72
2023-01-28T14:10:15.893Z,99544.34
2023-01-28T14:13:16.642Z,99548.38
2023-01-28T14:16:12.256Z,99549.47
2023-01-28T14:18:45.995Z,99549.56
2023-01-28T14:21:19.799Z,99556.63
2023-01-28T14:23:56.139Z,99554.75
2023-01-28T14:26:57.904Z,99554.25
2023-01-28T14:29:41.214Z,99560.94
2023-01-28T14:32:17.923Z,99566.09
2023-01-28T14:34:47.037Z,99572.13
2023-01-28T14:37:25.570Z,99570.94
2023-01-28T14:39:59.179Z,99568.09
2023-01-28T14:42:31.757Z,99563.81
2023-01-28T14:45:09.814Z,99571.72
2023-01-28T14:48:00.493Z,99571.94
2023-01-28T14:50:48.049Z,99575.84
2023-01-28T14:53:50.170Z,99585.69
2023-01-28T14:56:41.431Z,99582.06
2023-01-28T14:59:23.134Z,99587.69
2023-01-28T15:01:56.577Z,99588.41
2023-01-28T15:04:30.895Z,99584.75
2023-01-28T15:07:12.868Z,99591.34
2023-01-28T15:09:41.388Z,99584.16
2023-01-28T15:12:09.690Z,99592.34
2023-01-28T15:14:38.252Z,99592.62
2023-01-28T15:17:06.876Z,99597.63
2023-01-28T15:19:36.681Z,99597.28
2023-01-28T15:22:06.775Z,99607.25
2023-01-28T15:24:36.136Z,99609.97
2023-01-28T15:27:04.480Z,99608.59
2023-01-28T15:29:35.602Z,99616.47
2023-01-28T15:32:05.431Z,99615.38
2023-01-28T15:34:33.608Z,99618.81
2023-01-28T15:37:01.993Z,99621.31
2023-01-28T15:39:30.967Z,99627.75
2023-01-28T15:42:02.253Z,99629.31
2023-01-28T15:44:34.179Z,99630.31
2023-01-28T15:47:04.959Z,99627.16
2023-01-28T15:49:36.304Z,99635.63
2023-01-28T15:52:06.040Z,99627.41
2023-01-28T15:54:41.224Z,99636.66
2023-01-28T15:57:20.963Z,99643.69
2023-01-28T15:59:51.573Z,99646.03
2023-01-28T16:02:24.536Z,99646.84
2023-01-28T16:05:08.672Z,99653.69
2023-01-28T16:07:45.378Z,99652.50
2023-01-28T16:10:25.222Z,99655.00
2023-01-28T16:12:56.182Z,99654.06
2023-01-28T16:15:24.585Z,99661.44
2023-01-28T16:17:53.015Z,99659.13
2023-01-28T16:20:29.592Z,99660.50
2023-01-28T16:23:03.175Z,99665.44
2023-01-28T16:25:33.842Z,99668.69
2023-01-28T16:28:03.588Z,99664.66
2023-01-28T16:30:31.778Z,99672.31
2023-01-28T16:33:00.543Z,99677.94
2023-01-28T16:35:42.490Z,99682.50
2023-01-28T16:38:18.755Z,99684.31
2023-01-28T16:40:47.940Z,99680.66
2023-01-28T16:43:16.998Z,99685.94
2023-01-28T16:45:46.380Z,99694.25
2023-01-28T16:48:15.069Z,99687.97
2023-01-28T16:50:43.704Z,99695.91
2023-01-28T16:53:19.397Z,99694.63
2023-01-28T16:55:50.249Z,99702.91
2023-01-28T16:58:24.042Z,99701.53
2023-01-28T17:00:53.376Z,99704.37
2023-01-28T17:03:21.696Z,99699.59
2023-01-28T17:05:50.104Z,99690.91
2023-01-28T17:08:18.715Z,99700.06
2023-01-28T17:10:55.100Z,99695.53
2023-01-28T17:13:23.910Z,99705.41
2023-01-28T17:15:53.275Z,99710.81
2023-01-28T17:18:21.586Z,99712.44
2023-01-28T17:20:50.157Z,99715.81
2023-01-28T17:23:23.219Z,99715.72
2023-01-28T17:25:51.721Z,99726.78
2023-01-28T17:28:20.045Z,99731.16
2023-01-28T17:30:48.272Z,99727.94
2023-01-28T17:33:17.052Z,99721.88
2023-01-28T17:35:48.902Z,99721.72
2023-01-28T17:38:17.411Z,99727.09
2023-01-28T17:40:45.554Z,99728.09
2023-01-28T17:43:13.729Z,99737.16
2023-01-28T17:45:42.229Z,99730.72
2023-01-28T17:48:11.433Z,99735.63
2023-01-28T17:50:40.694Z,99738.44
2023-01-28T17:53:11.064Z,99741.53
2023-01-28T17:55:39.411Z,99743.88
2023-01-28T17:58:07.634Z,99744.66
2023-01-28T18:00:37.141Z,99747.44
2023-01-28T18:03:05.626Z,99757.66
2023-01-28T18:05:33.713Z,99755.34
2023-01-28T18:08:01.872Z,99753.19
2023-01-28T18:10:30.437Z,99756.63
2023-01-28T18:12:58.751Z,99753.78
2023-01-28T18:15:27.041Z,99761.75
2023-01-28T18:17:55.419Z,99762.97
2023-01-28T18:20:23.620Z,99768.62
2023-01-28T18:22:51.679Z,99769.34
2023-01-28T18:25:20.660Z,99773.03
2023-01-28T18:27:49.547Z,99778.53
2023-01-28T18:30:18.599Z,99773.28
2023-01-28T18:32:47.170Z,99775.16
2023-01-28T18:35:15.578Z,99782.88
2023-01-28T18:37:45.083Z,99778.69
2023-01-28T18:40:13.801Z,99773.88
2023-01-28T18:42:41.898Z,99777.69
2023-01-28T18:45:10.483Z,99774.22
2023-01-28T18:47:41.692Z,99779.69
2023-01-28T18:50:10.128Z,99784.88
2023-01-28T18:52:38.714Z,99781.41
2023-01-28T18:55:07.394Z,99795.13
2023-01-28T18:57:37.070Z,99796.53
2023-01-28T19:00:06.204Z,99796.63
2023-01-28T19:02:35.989Z,99791.97
2023-01-28T19:05:07.583Z,99787.91
2023-01-28T19:07:37.632Z,99800.34
2023-01-28T19:10:08.119Z,99794.63
2023-01-28T19:12:38.914Z,99794.87
2023-01-28T19:15:08.315Z,99794.66
2023-01-28T19:17:37.001Z,99802.94
2023-01-28T19:20:07.930Z,99799.53
2023-01-28T19:22:37.956Z,99808.25
2023-01-28T19:25:09.112Z,99806.22
2023-01-28T19:27:39.588Z,99808.63
2023-01-28T19:30:13.139Z,99809.19
2023-01-28T19:32:42.614Z,99806.38
2023-01-28T19:35:11.918Z,99808.94
2023-01-28T19:37:40.752Z,99812.47
2023-01-28T19:40:10.468Z,99814.44
2023-01-28T19:42:38.971Z,99811.50
2023-01-28T19:45:07.554Z,99814.78
2023-01-28T19:47:46.491Z,99819.41
2023-01-28T19:50:15.760Z,99822.84
2023-01-28T19:52:44.856Z,99823.50
2023-01-28T19:55:13.166Z,99831.13
2023-01-28T19:57:41.264Z,99827.31
2023-01-28T20:00:11.850Z,99831.41
2023-01-28T20:02:40.291Z,99836.03
2023-01-28T20:05:08.813Z,99839.28
2023-01-28T20:07:36.852Z,99844.62
2023-01-28T20:10:05.694Z,99854.16
2023-01-28T20:12:33.750Z,99850.56
2023-01-28T20:15:01.834Z,99844.62
2023-01-28T20:17:30.612Z,99847.13
2023-01-28T20:19:58.707Z,99838.50
2023-01-28T20:22:26.774Z,99852.28
2023-01-28T20:24:57.409Z,99838.22
2023-01-28T20:27:25.906Z,99846.75
2023-01-28T20:29:54.404Z,99847.56
2023-01-28T20:32:23.482Z,99846.16
2023-01-28T20:34:52.402Z,99852.53
2023-01-28T20:37:20.911Z,99848.59
2023-01-28T20:39:49.092Z,99854.81
2023-01-28T20:42:17.236Z,99858.41
2023-01-28T20:44:48.361Z,99856.53
2023-01-28T20:47:16.476Z,99856.75
2023-01-28T20:49:44.562Z,99855.75
2023-01-28T20:52:13.224Z,99860.81
2023-01-28T20:54:41.413Z,99867.22
2023-01-28T20:57:09.423Z,99871.06
2023-01-28T20:59:37.856Z,99872.50
2023-01-28T21:02:05.853Z,99874.22
2023-01-28T21:04:34.240Z,99877.31
2023-01-28T21:07:02.718Z,99881.75
2023-01-28T21:09:30.731Z,99883.91
2023-01-28T21:11:59.082Z,99887.37
2023-01-28T21:14:27.530Z,99884.22
2023-01-28T21:16:55.644Z,99883.59
2023-01-28T21:19:23.911Z,99883.16
2023-01-28T21:21:52.275Z,99877.50
2023-01-28T21:24:20.419Z,99888.19
2023-01-28T21:26:48.594Z,99892.28
2023-01-28T21:29:19.068Z,99893.84
2023-01-28T21:31:47.083Z,99894.59
2023-01-28T21:34:16.165Z,99899.75
2023-01-28T21:36:44.813Z,99902.81
2023-01-28T21:39:12.841Z,99903.53
2023-01-28T21:41:41.002Z,99899.50
2023-01-28T21:44:11.975Z,99895.47
2023-01-28T21:46:40.598Z,99897.44
2023-01-28T21:49:10.564Z,99893.66
2023-01-28T21:51:56.833Z,99896.31
2023-01-28T21:54:25.112Z,99895.47
2023-01-28T21:56:53.670Z,99898.72
2023-01-28T21:59:30.859Z,99895.56
2023-01-28T22:02:18.433Z,99898.69
2023-01-28T22:04:49.576Z,99900.34
2023-01-28T22:07:25.455Z,99900.28
2023-01-28T22:10:18.987Z,99902.47
2023-01-28T22:12:47.043Z,99904.19
2023-01-28T22:15:15.444Z,99904.78
2023-01-28T22:17:43.528Z,99910.09
2023-01-28T22:20:12.013Z,99897.84
2023-01-28T22:22:40.488Z,99902.25
2023-01-28T22:25:08.923Z,99904.31
2023-01-28T22:27:36.897Z,99901.87
2023-01-28T22:30:05.900Z,99908.34
2023-01-28T22:32:34.154Z,99903.56
2023-01-28T22:35:04.911Z,99903.75
2023-01-28T22:37:33.287Z,99901.31
2023-01-28T22:40:01.587Z,99909.53
2023-01-28T22:42:29.755Z,99913.09
2023-01-28T22:44:58.203Z,99907.78
2023-01-28T22:47:26.283Z,99913.91
2023-01-28T22:49:54.293Z,99920.88
2023-01-28T22:52:22.728Z,99910.72
2023-01-28T22:54:51.868Z,99916.66
2023-01-28T22:57:20.012Z,99917.44
2023-01-28T22:59:59.723Z,99925.13
2023-01-28T23:02:28.720Z,99931.94
2023-01-28T23:04:57.180Z,99919.94
2023-01-28T23:07:25.243Z,99929.75
2023-01-28T23:09:53.349Z,99925.28
2023-01-28T23:12:21.900Z,99926.88
2023-01-28T23:15:08.435Z,99922.84
2023-01-28T23:17:55.731Z,99920.56
2023-01-28T23:20:42.505Z,99925.69
2023-01-28T23:23:31.751Z,99921.41
2023-01-28T23:25:59.734Z,99934.63
2023-01-28T23:28:28.319Z,99928.91
2023-01-28T23:30:56.537Z,99923.06
2023-01-28T23:33:24.963Z,99933.66
2023-01-28T23:35:53.423Z,99933.50
2023-01-28T23:38:21.522Z,99935.84
2023-01-28T23:40:49.625Z,99936.28
2023-01-28T23:43:17.962Z,99937.50
2023-01-28T23:45:45.931Z,99932.47
2023-01-28T23:48:13.954Z,99940.63
2023-01-28T23:50:42.530Z,99935.34
2023-01-28T23:53:13.432Z,99935.66
2023-01-28T23:55:41.441Z,99940.31
2023-01-28T23:58:10.038Z,99930.84
